createdAt,value
2022-12-11T00:02:13.287Z,0.63
2022-12-11T00:04:59.676Z,0.61
2022-12-11T00:07:45.978Z,0.62
2022-12-11T00:10:37.543Z,0.65
2022-12-11T00:13:24.064Z,0.66
2022-12-11T00:16:10.528Z,0.68
2022-12-11T00:18:56.939Z,0.67
2022-12-11T00:21:43.278Z,0.66
2022-12-11T00:24:29.658Z,0.64
2022-12-11T00:27:16.145Z,0.60
2022-12-11T00:30:03.037Z,0.59
2022-12-11T00:32:51.676Z,0.58
2022-12-11T00:35:39.270Z,0.56
2022-12-11T00:38:25.676Z,0.55
2022-12-11T00:41:12.470Z,0.51
2022-12-11T00:43:59.113Z,0.50
2022-12-11T00:46:45.569Z,0.51
2022-12-11T00:49:32.104Z,0.57
2022-12-11T00:52:18.559Z,0.62
2022-12-11T00:55:05.382Z,0.69
2022-12-11T00:57:51.904Z,0.71
2022-12-11T01:00:38.540Z,0.72
2022-12-11T01:03:24.770Z,0.70
2022-12-11T01:06:16.279Z,0.64
2022-12-11T01:09:21.158Z,0.61
2022-12-11T01:12:07.545Z,0.58
2022-12-11T01:14:54.460Z,0.57
2022-12-11T01:17:40.977Z,0.55
2022-12-11T01:20:27.931Z,0.47
2022-12-11T01:23:14.436Z,0.49
2022-12-11T01:26:11.237Z,0.52
2022-12-11T01:28:57.439Z,0.55
2022-12-11T01:31:44.048Z,0.61
2022-12-11T01:34:31.119Z,0.63
2022-12-11T01:37:17.492Z,0.64
2022-12-11T01:40:05.017Z,0.61
2022-12-11T01:42:51.441Z,0.59
2022-12-11T01:45:44.671Z,0.58
2022-12-11T01:48:31.597Z,0.54
2022-12-11T01:51:17.757Z,0.51
2022-12-11T01:54:07.180Z,0.45
2022-12-11T01:56:54.380Z,0.43
2022-12-11T01:59:41.771Z,0.38
2022-12-11T02:02:30.125Z,0.37
2022-12-11T02:05:16.685Z,0.43
2022-12-11T02:08:03.492Z,0.46
2022-12-11T02:10:54.656Z,0.51
2022-12-11T02:13:44.837Z,0.54
2022-12-11T02:16:47.153Z,0.54
2022-12-11T02:20:07.439Z,0.54
2022-12-11T02:23:12.659Z,0.55
2022-12-11T02:26:30.027Z,0.47
2022-12-11T02:29:28.940Z,0.35
2022-12-11T02:32:19.159Z,0.27
2022-12-11T02:35:09.809Z,0.24
2022-12-11T02:38:04.352Z,0.25
2022-12-11T02:40:51.226Z,0.28
2022-12-11T02:43:37.793Z,0.32
2022-12-11T02:46:24.317Z,0.29
2022-12-11T02:49:10.691Z,0.27
2022-12-11T02:51:57.206Z,0.28
2022-12-11T02:54:43.757Z,0.28
2022-12-11T02:57:50.169Z,0.26
2022-12-11T03:00:36.435Z,0.21
2022-12-11T03:03:22.675Z,0.16
2022-12-11T03:06:10.332Z,0.13
2022-12-11T03:08:56.703Z,0.15
2022-12-11T03:11:43.167Z,0.14
2022-12-11T03:14:30.079Z,0.16
2022-12-11T03:17:24.170Z,0.15
2022-12-11T03:20:22.787Z,0.14
2022-12-11T03:23:27.458Z,0.12
2022-12-11T03:26:14.627Z,0.10
2022-12-11T03:29:04.205Z,0.04
2022-12-11T03:32:04.345Z,-0.04
2022-12-11T03:35:04.121Z,-0.03
2022-12-11T03:37:50.432Z,0.00
2022-12-11T03:40:36.669Z,-0.02
2022-12-11T03:43:23.304Z,0.01
2022-12-11T03:46:09.795Z,0.07
2022-12-11T03:48:57.186Z,0.09
2022-12-11T03:51:43.752Z,0.08
2022-12-11T03:54:30.112Z,0.08
2022-12-11T03:57:18.402Z,0.06
2022-12-11T04:00:07.165Z,0.07
2022-12-11T04:03:13.916Z,0.05
2022-12-11T04:06:00.896Z,-0.01
2022-12-11T04:08:46.912Z,-0.05
2022-12-11T04:11:36.251Z,-0.06
2022-12-11T04:14:41.488Z,-0.02
2022-12-11T04:17:50.209Z,-0.01
2022-12-11T04:20:56.954Z,0.04
2022-12-11T04:24:01.718Z,0.10
2022-12-11T04:26:48.085Z,0.01
2022-12-11T04:29:34.255Z,-0.04
2022-12-11T04:32:20.799Z,-0.05
2022-12-11T04:35:08.690Z,-0.05
2022-12-11T04:37:55.383Z,-0.06
2022-12-11T04:40:41.692Z,-0.08
2022-12-11T04:43:28.067Z,-0.06
2022-12-11T04:46:16.478Z,-0.02
2022-12-11T04:49:03.132Z,-0.02
2022-12-11T04:51:49.087Z,-0.02
2022-12-11T04:54:35.609Z,-0.05
2022-12-11T04:57:22.017Z,-0.05
2022-12-11T05:00:10.018Z,-0.03
2022-12-11T05:02:56.537Z,-0.02
2022-12-11T05:05:51.367Z,-0.04
2022-12-11T05:08:38.770Z,-0.06
2022-12-11T05:11:25.166Z,-0.12
2022-12-11T05:14:11.785Z,-0.12
2022-12-11T05:17:02.153Z,-0.12
2022-12-11T05:19:49.408Z,-0.09
2022-12-11T05:22:36.484Z,-0.05
2022-12-11T05:25:23.010Z,0.00
2022-12-11T05:28:09.276Z,-0.01
2022-12-11T05:30:56.963Z,-0.03
2022-12-11T05:33:43.552Z,-0.09
2022-12-11T05:36:31.955Z,-0.13
2022-12-11T05:39:18.395Z,-0.15
2022-12-11T05:42:04.604Z,-0.22
2022-12-11T05:44:51.131Z,-0.21
2022-12-11T05:47:37.264Z,-0.18
2022-12-11T05:50:23.720Z,-0.13
2022-12-11T05:53:09.836Z,-0.09
2022-12-11T05:56:02.313Z,-0.05
2022-12-11T05:58:48.830Z,-0.08
2022-12-11T06:01:43.876Z,-0.10
2022-12-11T06:04:30.468Z,-0.14
2022-12-11T06:07:16.539Z,-0.21
2022-12-11T06:10:02.986Z,-0.22
2022-12-11T06:12:48.976Z,-0.23
2022-12-11T06:15:35.105Z,-0.23
2022-12-11T06:18:21.812Z,-0.22
2022-12-11T06:21:18.844Z,-0.25
2022-12-11T06:24:05.848Z,-0.28
2022-12-11T06:26:51.905Z,-0.31
2022-12-11T06:29:38.199Z,-0.38
2022-12-11T06:32:24.302Z,-0.39
2022-12-11T06:35:10.915Z,-0.42
2022-12-11T06:37:57.511Z,-0.42
2022-12-11T06:40:44.077Z,-0.37
2022-12-11T06:43:31.613Z,-0.29
2022-12-11T06:46:19.037Z,-0.27
2022-12-11T06:49:05.528Z,-0.23
2022-12-11T06:51:52.331Z,-0.28
2022-12-11T06:54:38.607Z,-0.27
2022-12-11T06:57:25.211Z,-0.27
2022-12-11T07:00:12.246Z,-0.28
2022-12-11T07:02:58.704Z,-0.32
2022-12-11T07:05:45.307Z,-0.35
2022-12-11T07:08:32.097Z,-0.36
2022-12-11T07:11:18.760Z,-0.36
2022-12-11T07:14:04.940Z,-0.32
2022-12-11T07:16:51.408Z,-0.29
2022-12-11T07:19:37.806Z,-0.22
2022-12-11T07:22:24.313Z,-0.16
2022-12-11T07:25:10.690Z,-0.13
2022-12-11T07:27:56.932Z,-0.15
2022-12-11T07:30:43.613Z,-0.17
2022-12-11T07:33:29.847Z,-0.19
2022-12-11T07:36:16.485Z,-0.24
2022-12-11T07:39:02.685Z,-0.30
2022-12-11T07:41:49.000Z,-0.30
2022-12-11T07:44:35.531Z,-0.28
2022-12-11T07:47:21.603Z,-0.26
2022-12-11T07:50:08.055Z,-0.23
2022-12-11T07:52:54.742Z,-0.22
2022-12-11T07:55:41.058Z,-0.25
2022-12-11T07:58:27.755Z,-0.31
2022-12-11T08:01:21.668Z,-0.36
2022-12-11T08:04:09.421Z,-0.42
2022-12-11T08:06:55.814Z,-0.38
2022-12-11T08:09:42.284Z,-0.34
2022-12-11T08:12:28.552Z,-0.33
2022-12-11T08:15:14.713Z,-0.32
2022-12-11T08:18:01.282Z,-0.25
2022-12-11T08:20:47.803Z,-0.21
2022-12-11T08:23:34.378Z,-0.20
2022-12-11T08:26:25.714Z,-0.22
2022-12-11T08:29:11.750Z,-0.27
2022-12-11T08:31:58.456Z,-0.34
2022-12-11T08:34:45.156Z,-0.30
2022-12-11T08:37:31.572Z,-0.25
2022-12-11T08:40:17.919Z,-0.22
2022-12-11T08:43:04.084Z,-0.23
2022-12-11T08:45:50.805Z,-0.21
2022-12-11T08:48:38.028Z,-0.18
2022-12-11T08:51:26.482Z,-0.16
2022-12-11T08:54:12.997Z,-0.21
2022-12-11T08:56:59.484Z,-0.25
2022-12-11T08:59:45.939Z,-0.27
2022-12-11T09:02:32.487Z,-0.29
2022-12-11T09:05:19.183Z,-0.32
2022-12-11T09:08:05.471Z,-0.30
2022-12-11T09:10:51.760Z,-0.25
2022-12-11T09:13:38.860Z,-0.21
2022-12-11T09:16:25.790Z,-0.21
2022-12-11T09:19:16.472Z,-0.26
2022-12-11T09:22:02.915Z,-0.26
2022-12-11T09:24:49.342Z,-0.27
2022-12-11T09:27:35.639Z,-0.34
2022-12-11T09:30:22.130Z,-0.42
2022-12-11T09:33:08.579Z,-0.42
2022-12-11T09:36:01.001Z,-0.44
2022-12-11T09:38:47.945Z,-0.40
2022-12-11T09:41:38.022Z,-0.35
2022-12-11T09:44:41.341Z,-0.31
2022-12-11T09:47:57.363Z,-0.27
2022-12-11T09:50:46.037Z,-0.22
2022-12-11T09:53:35.953Z,-0.19
2022-12-11T09:56:27.934Z,-0.19
2022-12-11T09:59:29.723Z,-0.18
2022-12-11T10:02:44.844Z,-0.23
2022-12-11T10:06:01.040Z,-0.23
2022-12-11T10:08:56.773Z,-0.28
2022-12-11T10:11:58.001Z,-0.31
2022-12-11T10:15:06.595Z,-0.28
2022-12-11T10:17:57.513Z,-0.24
2022-12-11T10:20:46.541Z,-0.18
2022-12-11T10:23:36.236Z,-0.15
2022-12-11T10:26:23.487Z,-0.13
2022-12-11T10:29:14.599Z,-0.11
2022-12-11T10:32:01.186Z,-0.16
2022-12-11T10:34:47.530Z,-0.24
2022-12-11T10:37:33.957Z,-0.26
2022-12-11T10:40:20.527Z,-0.21
2022-12-11T10:43:06.803Z,-0.15
2022-12-11T10:45:53.676Z,-0.15
2022-12-11T10:48:53.646Z,-0.18
2022-12-11T10:51:40.172Z,-0.28
2022-12-11T10:54:30.421Z,-0.31
2022-12-11T10:57:16.915Z,-0.35
2022-12-11T11:00:06.102Z,-0.37
2022-12-11T11:02:52.178Z,-0.38
2022-12-11T11:05:38.433Z,-0.40
2022-12-11T11:08:24.882Z,-0.34
2022-12-11T11:11:34.315Z,-0.31
2022-12-11T11:14:21.224Z,-0.37
2022-12-11T11:17:14.027Z,-0.42
2022-12-11T11:20:01.513Z,-0.44
2022-12-11T11:22:49.978Z,-0.42
2022-12-11T11:25:36.555Z,-0.44
2022-12-11T11:28:25.890Z,-0.50
2022-12-11T11:31:13.786Z,-0.50
2022-12-11T11:34:05.849Z,-0.55
2022-12-11T11:36:59.723Z,-0.57
2022-12-11T11:39:48.101Z,-0.57
2022-12-11T11:42:44.268Z,-0.54
2022-12-11T11:45:34.574Z,-0.59
2022-12-11T11:48:41.136Z,-0.61
2022-12-11T11:51:30.644Z,-0.66
2022-12-11T11:54:22.776Z,-0.64
2022-12-11T11:57:15.953Z,-0.61
2022-12-11T12:00:10.750Z,-0.60
2022-12-11T12:03:01.797Z,-0.61
2022-12-11T12:06:06.457Z,-0.59
2022-12-11T12:08:56.729Z,-0.55
2022-12-11T12:12:03.762Z,-0.52
2022-12-11T12:15:13.387Z,-0.57
2022-12-11T12:18:10.023Z,-0.58
2022-12-11T12:21:00.185Z,-0.58
2022-12-11T12:24:08.602Z,-0.62
2022-12-11T12:27:01.941Z,-0.66
2022-12-11T12:29:51.480Z,-0.71
2022-12-11T12:33:03.799Z,-0.75
2022-12-11T12:35:52.907Z,-0.71
2022-12-11T12:38:42.874Z,-0.71
2022-12-11T12:41:41.522Z,-0.64
2022-12-11T12:44:27.677Z,-0.61
2022-12-11T12:47:15.432Z,-0.63
2022-12-11T12:50:01.855Z,-0.70
2022-12-11T12:52:48.237Z,-0.72
2022-12-11T12:55:34.933Z,-0.74
2022-12-11T12:58:28.401Z,-0.77
2022-12-11T13:01:22.585Z,-0.80
2022-12-11T13:04:54.399Z,-0.85
2022-12-11T13:07:33.840Z,-0.82
2022-12-11T13:10:37.337Z,-0.78
2022-12-11T13:13:38.039Z,-0.77
2022-12-11T13:16:26.035Z,-0.79
2022-12-11T13:19:25.487Z,-0.79
2022-12-11T13:22:14.706Z,-0.79
2022-12-11T13:25:02.595Z,-0.84
2022-12-11T13:27:49.852Z,-0.91
2022-12-11T13:30:36.530Z,-0.92
2022-12-11T13:33:23.034Z,-0.86
2022-12-11T13:36:15.100Z,-0.84
2022-12-11T13:39:27.483Z,-0.84
2022-12-11T13:42:23.855Z,-0.84
2022-12-11T13:45:18.952Z,-0.87
2022-12-11T13:48:06.079Z,-0.96
2022-12-11T13:50:52.539Z,-0.98
2022-12-11T13:53:39.019Z,-0.99
2022-12-11T13:56:25.316Z,-0.98
2022-12-11T13:59:24.752Z,-0.95
2022-12-11T14:02:13.776Z,-0.91
2022-12-11T14:05:03.700Z,-0.85
2022-12-11T14:07:57.335Z,-0.85
2022-12-11T14:10:44.098Z,-0.80
2022-12-11T14:13:37.868Z,-0.79
2022-12-11T14:16:25.061Z,-0.86
2022-12-11T14:19:14.400Z,-0.89
2022-12-11T14:22:02.719Z,-0.91
2022-12-11T14:26:33.002Z,-0.97
2022-12-11T14:29:27.729Z,-1.02
2022-12-11T14:32:35.096Z,-1.03
2022-12-11T14:35:38.617Z,-1.06
2022-12-11T14:38:28.137Z,-1.08
2022-12-11T14:41:30.656Z,-1.15
2022-12-11T14:44:17.640Z,-1.20
2022-12-11T14:47:06.174Z,-1.20
2022-12-11T14:49:55.712Z,-1.23
2022-12-11T14:53:04.296Z,-1.28
2022-12-11T14:55:50.659Z,-1.29
2022-12-11T14:58:40.645Z,-1.32
2022-12-11T15:01:32.522Z,-1.36
2022-12-11T15:04:31.479Z,-1.34
2022-12-11T15:07:21.662Z,-1.33
2022-12-11T15:10:31.488Z,-1.32
2022-12-11T15:13:22.924Z,-1.34
2022-12-11T15:16:10.250Z,-1.41
2022-12-11T15:18:56.920Z,-1.43
2022-12-11T15:21:43.461Z,-1.47
2022-12-11T15:24:50.396Z,-1.55
2022-12-11T15:27:37.908Z,-1.55
2022-12-11T15:30:27.005Z,-1.56
2022-12-11T15:33:18.681Z,-1.60
2022-12-11T15:36:06.720Z,-1.60
2022-12-11T15:38:53.530Z,-1.60
2022-12-11T15:41:41.311Z,-1.59
2022-12-11T15:44:28.212Z,-1.57
2022-12-11T15:47:15.590Z,-1.60
2022-12-11T15:50:08.543Z,-1.58
2022-12-11T15:52:55.940Z,-1.59
2022-12-11T15:55:42.320Z,-1.59
2022-12-11T15:58:28.836Z,-1.61
2022-12-11T16:01:15.715Z,-1.65
2022-12-11T16:04:05.070Z,-1.63
2022-12-11T16:06:52.015Z,-1.60
2022-12-11T16:09:38.841Z,-1.60
2022-12-11T16:12:25.383Z,-1.63
2022-12-11T16:15:15.301Z,-1.64
2022-12-11T16:18:06.674Z,-1.67
2022-12-11T16:20:53.190Z,-1.67
2022-12-11T16:23:39.928Z,-1.69
2022-12-11T16:26:26.528Z,-1.70
2022-12-11T16:29:13.025Z,-1.71
2022-12-11T16:31:59.622Z,-1.71
2022-12-11T16:34:46.459Z,-1.69
2022-12-11T16:37:32.972Z,-1.64
2022-12-11T16:40:19.600Z,-1.60
2022-12-11T16:43:06.426Z,-1.60
2022-12-11T16:45:56.391Z,-1.59
2022-12-11T16:48:45.144Z,-1.60
2022-12-11T16:51:32.104Z,-1.61
2022-12-11T16:54:18.757Z,-1.63
2022-12-11T16:57:05.267Z,-1.64
2022-12-11T16:59:52.352Z,-1.65
2022-12-11T17:02:39.280Z,-1.69
2022-12-11T17:05:26.278Z,-1.66
2022-12-11T17:08:12.819Z,-1.67
2022-12-11T17:10:59.368Z,-1.64
2022-12-11T17:13:46.259Z,-1.63
2022-12-11T17:16:34.077Z,-1.60
2022-12-11T17:19:21.108Z,-1.62
2022-12-11T17:22:07.614Z,-1.65
2022-12-11T17:24:54.117Z,-1.67
2022-12-11T17:27:41.003Z,-1.68
2022-12-11T17:30:27.681Z,-1.66
2022-12-11T17:33:14.383Z,-1.67
2022-12-11T17:36:01.512Z,-1.66
2022-12-11T17:38:49.824Z,-1.67
2022-12-11T17:41:36.423Z,-1.69
2022-12-11T17:44:23.104Z,-1.71
2022-12-11T17:47:12.095Z,-1.72
2022-12-11T17:49:58.912Z,-1.73
2022-12-11T17:52:45.565Z,-1.73
2022-12-11T17:55:32.283Z,-1.70
2022-12-11T17:58:20.851Z,-1.73
2022-12-11T18:01:08.564Z,-1.74
2022-12-11T18:03:55.081Z,-1.73
2022-12-11T18:06:41.905Z,-1.72
2022-12-11T18:09:28.316Z,-1.75
2022-12-11T18:12:15.294Z,-1.75
2022-12-11T18:15:02.350Z,-1.72
2022-12-11T18:17:49.084Z,-1.68
2022-12-11T18:20:35.962Z,-1.69
2022-12-11T18:23:22.987Z,-1.66
2022-12-11T18:26:11.233Z,-1.67
2022-12-11T18:28:57.885Z,-1.69
2022-12-11T18:31:44.283Z,-1.70
2022-12-11T18:34:30.998Z,-1.73
2022-12-11T18:37:17.851Z,-1.74
2022-12-11T18:40:05.196Z,-1.74
2022-12-11T18:42:51.964Z,-1.75
2022-12-11T18:45:42.433Z,-1.78
2022-12-11T18:48:28.921Z,-1.78
2022-12-11T18:51:19.154Z,-1.78
2022-12-11T18:54:05.840Z,-1.79
2022-12-11T18:56:52.235Z,-1.81
2022-12-11T18:59:39.128Z,-1.84
2022-12-11T19:02:25.467Z,-1.83
2022-12-11T19:05:12.612Z,-1.85
2022-12-11T19:07:59.484Z,-1.86
2022-12-11T19:10:47.155Z,-1.88
2022-12-11T19:13:33.866Z,-1.91
2022-12-11T19:16:33.858Z,-1.90
2022-12-11T19:19:22.012Z,-1.88
2022-12-11T19:22:09.122Z,-1.86
2022-12-11T19:24:55.690Z,-1.85
2022-12-11T19:27:42.151Z,-1.85
2022-12-11T19:30:29.146Z,-1.88
2022-12-11T19:33:16.031Z,-1.90
2022-12-11T19:36:10.709Z,-1.91
2022-12-11T19:39:01.560Z,-1.89
2022-12-11T19:41:48.501Z,-1.86
2022-12-11T19:44:35.770Z,-1.87
2022-12-11T19:47:22.273Z,-1.87
2022-12-11T19:50:08.818Z,-1.90
2022-12-11T19:52:55.109Z,-1.95
2022-12-11T19:55:49.462Z,-1.97
2022-12-11T19:58:35.855Z,-1.93
2022-12-11T20:01:26.055Z,-1.89
2022-12-11T20:04:13.640Z,-1.87
2022-12-11T20:07:00.372Z,-1.87
2022-12-11T20:09:47.065Z,-1.91
2022-12-11T20:12:33.653Z,-1.91
2022-12-11T20:15:20.544Z,-1.89
2022-12-11T20:18:07.247Z,-1.87
2022-12-11T20:20:54.114Z,-1.82
2022-12-11T20:23:40.794Z,-1.80
2022-12-11T20:26:27.464Z,-1.79
2022-12-11T20:29:14.411Z,-1.82
2022-12-11T20:32:01.062Z,-1.88
2022-12-11T20:34:48.173Z,-1.89
2022-12-11T20:37:34.788Z,-1.90
2022-12-11T20:40:21.347Z,-1.90
2022-12-11T20:43:08.258Z,-1.88
2022-12-11T20:45:55.432Z,-1.86
2022-12-11T20:48:42.825Z,-1.88
2022-12-11T20:51:29.995Z,-1.90
2022-12-11T20:54:17.041Z,-1.92
2022-12-11T20:57:03.677Z,-1.92
2022-12-11T20:59:50.692Z,-1.92
2022-12-11T21:02:37.026Z,-1.90
2022-12-11T21:05:23.869Z,-1.89
2022-12-11T21:08:10.924Z,-1.88
2022-12-11T21:10:57.763Z,-1.85
2022-12-11T21:13:44.517Z,-1.86
2022-12-11T21:16:31.061Z,-1.85
2022-12-11T21:19:20.133Z,-1.86
2022-12-11T21:22:06.812Z,-1.88
2022-12-11T21:24:53.287Z,-1.89
2022-12-11T21:27:40.126Z,-1.88
2022-12-11T21:30:26.931Z,-1.86
2022-12-11T21:33:13.601Z,-1.84
2022-12-11T21:36:00.640Z,-1.88
2022-12-11T21:38:47.689Z,-1.89
2022-12-11T21:41:34.237Z,-1.85
2022-12-11T21:47:28.829Z,-1.80
2022-12-11T21:50:16.408Z,-1.76
2022-12-11T21:53:03.721Z,-1.74
2022-12-11T21:55:50.362Z,-1.76
2022-12-11T21:58:37.611Z,-1.80
2022-12-11T22:01:37.185Z,-1.84
2022-12-11T22:04:23.565Z,-1.87
2022-12-11T22:07:10.101Z,-1.87
2022-12-11T22:09:58.209Z,-1.85
2022-12-11T22:12:44.424Z,-1.87
2022-12-11T22:15:31.316Z,-1.87
2022-12-11T22:18:18.696Z,-1.91
2022-12-11T22:21:05.349Z,-1.91
2022-12-11T22:23:51.995Z,-1.91
2022-12-11T22:26:39.092Z,-1.90
2022-12-11T22:29:25.806Z,-1.87
2022-12-11T22:32:12.304Z,-1.84
2022-12-11T22:34:58.726Z,-1.81
2022-12-11T22:37:46.048Z,-1.81
2022-12-11T22:40:32.756Z,-1.82
2022-12-11T22:43:19.389Z,-1.81
2022-12-11T22:46:06.346Z,-1.81
2022-12-11T22:48:53.627Z,-1.82
2022-12-11T22:51:40.779Z,-1.82
2022-12-11T22:54:27.311Z,-1.78
2022-12-11T22:57:14.409Z,-1.73
2022-12-11T23:00:01.101Z,-1.70
2022-12-11T23:02:47.708Z,-1.69
2022-12-11T23:05:34.482Z,-1.69
2022-12-11T23:08:21.303Z,-1.72
2022-12-11T23:11:18.274Z,-1.74
2022-12-11T23:14:05.908Z,-1.76
2022-12-11T23:16:52.181Z,-1.79
2022-12-11T23:19:38.816Z,-1.81
2022-12-11T23:22:25.356Z,-1.81
2022-12-11T23:25:14.825Z,-1.79
2022-12-11T23:28:01.802Z,-1.76
2022-12-11T23:30:48.462Z,-1.76
2022-12-11T23:33:35.631Z,-1.72
2022-12-11T23:36:22.198Z,-1.69
2022-12-11T23:39:08.696Z,-1.73
2022-12-11T23:41:55.425Z,-1.79
2022-12-11T23:44:42.153Z,-1.79
2022-12-11T23:47:28.896Z,-1.81
2022-12-11T23:50:15.524Z,-1.83
2022-12-11T23:53:02.281Z,-1.80
2022-12-11T23:55:48.912Z,-1.78
2022-12-11T23:58:36.271Z,-1.74
